Airfield :
LOGIN :

Register | Disclaimer

   EN    FR    IT 

 










Legend :    VFR   Marginal VFR   IFR   Intensive IFR   Very Intensive IFR
Visi :
Ceiling :
>= 8 km
>= 3000ft
5 to 8 km
1000 to 3000 ft
1500m to 5 km
500 to 1000 ft
800 to 1500m
200 to 500 ft
< 800m
< 200 ft
Symbols :   Thunderstorms  Fog  Heavy snow  Heavy precipitations  Wind > 20 kt
SIGMETs :     Misc.  Thunderstorms  Icing  Turbulence  Mountain Waves  Volcanic Ashes







- Airport Elevation : 526 ft
- IATA code : LTN
- Download approach charts


EGGW - London Luton

CURRENT METAR :
  • 211720Z AUTO 21017KT 9999 OVC025 12/08 Q1000

EXPIRED METARs :
  • 211650Z AUTO 21020G31KT 9999 SCT025 BKN031 OVC043 12/08 Q0999
  • 211620Z AUTO 21018G28KT 9999 BKN030 BKN039 OVC049 12/08 Q0999
  • 211550Z AUTO 21019G30KT 9999 FEW030 SCT038 13/08 Q1000
  • 211520Z AUTO 21022G35KT 9999 SCT032 BKN040 13/08 Q1000
  • 211450Z AUTO 21019G31KT 9999 SCT037 BKN049 13/07 Q0999

TAF TAF EGGW
Valid from the 21 at 18:00 until the 22 at 18:00 UTC


211658Z 2118/2218 21020G30KT 9999 SCT030
BECMG 2118/2121 25013KT
TEMPO 2118/2121 7000 SHRA BKN012
PROB30
TEMPO 2121/2206 26016G26KT 7000 SHRA
BECMG 2206/2209 26020G30KT
TEMPO 2206/2210 7000 RA BKN014
BECMG 2215/2218 27014KT
ATIS : +44 1582 395 204
No reported NOTAMs for that airfield.
2 SIGMETs reported for the London FIR (EGTT) :
 
Severe turbulence
EGTT SIGMET 05 VALID 211800/212200 EGRR
EGTT LONDON FIR SEV TURB FCST SE OF LINE N5500 W00059 - N5332 W00530 SFC/FL060 STNR WKN=
Severe turbulence
EGTT SIGMET 04 VALID 211400/211800 EGRR
EGTT LONDON FIR SEV TURB FCST S OF N5400 SFC/FL060 STNR WKN=



MET'MAP, your aeronautical weather chart ! - Copyright ORBIFLY December 2007 - Disclaimer

ORBIFLY MET'MAP TEAM :

Programming & Development : Alexandra Zaïnal
Concept & Development : Baudouin d'Aumeries
Co-Development & Prog : Marc-Olivier Méhu
Technical & hardware support : Manuel Goepfert

Contact : metmap@orbifly.com




SOURCES & CREDITS :

   NOAA